Time;durP1;ratioP1;P1;durP2;ratioP2;P2;SDS_P1;SDS_P2;PMS_P1;PMS_P2;Temp;Humidity;BMP_temperature;BMP_pressure;BME280_temperature;BME280_humidity;BME280_pressure;Samples;Min_cycle;Max_cycle;Signal;HPM_P1;HPM_P2
2024/04/28 00:00:41;;;;;;;2.17;1.60;;;;;;;;;;5527894;26;20413;-81
2024/04/28 00:03:06;;;;;;;1.60;1.50;;;;;;;;;;5528427;26;20828;-81
2024/04/28 00:05:33;;;;;;;1.40;1.20;;;;;;;;;;5527957;26;20331;-81
2024/04/28 00:07:58;;;;;;;1.38;1.27;;;;;;;;;;5528739;26;20653;-81
2024/04/28 00:10:24;;;;;;;1.30;1.20;;;;;;;;;;5531401;26;20331;-81
2024/04/28 00:12:50;;;;;;;1.48;1.38;;;;;;;;;;5531663;26;20464;-81
2024/04/28 00:15:16;;;;;;;1.85;1.50;;;;;;;;;;5532116;26;20339;-81
2024/04/28 00:17:42;;;;;;;2.05;1.70;;;;;;;;;;5531865;26;20356;-81
2024/04/28 00:20:08;;;;;;;1.70;1.30;;;;;;;;;;5530865;26;20401;-81
2024/04/28 00:22:34;;;;;;;1.63;1.52;;;;;;;;;;5529490;26;20320;-81
2024/04/28 00:25:00;;;;;;;1.35;1.25;;;;;;;;;;5530369;26;20437;-81
2024/04/28 00:27:26;;;;;;;2.20;1.50;;;;;;;;;;5531741;26;20320;-81
2024/04/28 00:29:52;;;;;;;1.60;1.50;;;;;;;;;;5531565;26;20367;-81
2024/04/28 00:32:20;;;;;;;1.50;1.40;;;;;;;;;;5531445;26;20315;-81
2024/04/28 00:34:46;;;;;;;1.25;1.13;;;;;;;;;;5532260;26;20331;-81
2024/04/28 00:37:12;;;;;;;2.10;1.15;;;;;;;;;;5531322;26;20324;-81
2024/04/28 00:39:38;;;;;;;1.10;1.00;;;;;;;;;;5515584;26;20312;-81
2024/04/28 00:42:04;;;;;;;0.85;0.85;;;;;;;;;;5532195;26;20881;-81
2024/04/28 00:44:30;;;;;;;1.10;0.90;;;;;;;;;;5531499;26;20327;-81
2024/04/28 00:46:56;;;;;;;0.95;0.88;;;;;;;;;;5531560;26;20316;-81
2024/04/28 00:49:22;;;;;;;1.70;0.80;;;;;;;;;;5531045;26;20372;-81
2024/04/28 00:51:48;;;;;;;0.80;0.80;;;;;;;;;;5531224;26;20327;-81
2024/04/28 00:54:14;;;;;;;2.30;1.00;;;;;;;;;;5531369;26;20808;-81
2024/04/28 00:56:41;;;;;;;2.20;1.00;;;;;;;;;;5530922;26;20379;-81
2024/04/28 00:59:07;;;;;;;0.93;0.82;;;;;;;;;;5531290;26;20312;-81
2024/04/28 01:01:33;;;;;;;1.38;0.85;;;;;;;;;;5529580;26;20654;-81
2024/04/28 01:03:59;;;;;;;1.50;0.88;;;;;;;;;;5528937;26;20357;-81
2024/04/28 01:06:25;;;;;;;1.10;0.88;;;;;;;;;;5529446;26;20316;-81
2024/04/28 01:08:51;;;;;;;0.90;0.75;;;;;;;;;;5528382;26;20405;-81
2024/04/28 01:11:17;;;;;;;1.27;0.90;;;;;;;;;;5529298;26;20332;-81
2024/04/28 01:13:43;;;;;;;0.98;0.95;;;;;;;;;;5529655;26;20382;-81
2024/04/28 01:16:09;;;;;;;1.05;0.98;;;;;;;;;;5528746;26;20835;-81
2024/04/28 01:18:35;;;;;;;1.38;0.93;;;;;;;;;;5528575;26;20324;-81
2024/04/28 01:21:01;;;;;;;0.98;0.98;;;;;;;;;;5527903;26;20413;-81
2024/04/28 01:23:27;;;;;;;1.10;1.00;;;;;;;;;;5529214;26;20409;-81
2024/04/28 01:25:53;;;;;;;0.70;0.70;;;;;;;;;;5528889;26;20359;-81
2024/04/28 01:28:19;;;;;;;1.10;1.00;;;;;;;;;;5510376;26;20370;-81
2024/04/28 01:30:45;;;;;;;0.80;0.80;;;;;;;;;;5521388;26;20804;-81
2024/04/28 01:33:11;;;;;;;1.23;0.97;;;;;;;;;;5529339;26;20401;-81
2024/04/28 01:35:38;;;;;;;1.80;0.98;;;;;;;;;;5528407;26;20320;-81
2024/04/28 01:38:04;;;;;;;1.00;0.80;;;;;;;;;;5527381;26;20323;-81
2024/04/28 01:40:30;;;;;;;1.30;0.80;;;;;;;;;;5514388;26;20319;-81
2024/04/28 01:42:56;;;;;;;1.52;0.98;;;;;;;;;;5528551;26;20316;-81
2024/04/28 01:45:22;;;;;;;0.70;0.70;;;;;;;;;;5529265;26;20366;-81
2024/04/28 01:47:48;;;;;;;0.90;0.77;;;;;;;;;;5528213;26;20324;-81
2024/04/28 01:50:14;;;;;;;0.65;0.65;;;;;;;;;;5528801;26;20359;-81
2024/04/28 01:52:40;;;;;;;2.30;0.77;;;;;;;;;;5528748;26;20832;-81
2024/04/28 01:55:06;;;;;;;1.58;0.80;;;;;;;;;;5522175;26;20320;-81
2024/04/28 01:57:32;;;;;;;1.15;0.82;;;;;;;;;;5528593;26;20860;-81
2024/04/28 01:59:58;;;;;;;0.85;0.80;;;;;;;;;;5528238;26;20320;-81
2024/04/28 02:02:24;;;;;;;0.77;0.70;;;;;;;;;;5528567;26;20316;-81
2024/04/28 02:04:50;;;;;;;0.80;0.73;;;;;;;;;;5528228;26;20831;-81
2024/04/28 02:07:16;;;;;;;0.98;0.80;;;;;;;;;;5527892;26;20311;-81
2024/04/28 02:09:42;;;;;;;0.90;0.70;;;;;;;;;;5528686;26;20352;-81
2024/04/28 02:12:08;;;;;;;1.30;0.75;;;;;;;;;;5528520;26;20331;-81
2024/04/28 02:14:34;;;;;;;0.70;0.70;;;;;;;;;;5528189;26;20316;-81
2024/04/28 02:17:00;;;;;;;0.70;0.70;;;;;;;;;;5527502;26;20415;-81
2024/04/28 02:19:26;;;;;;;0.95;0.80;;;;;;;;;;5528159;26;20374;-81
2024/04/28 02:21:52;;;;;;;1.35;0.80;;;;;;;;;;5528321;26;20323;-81
2024/04/28 02:24:18;;;;;;;0.80;0.73;;;;;;;;;;5518270;26;20319;-81
2024/04/28 02:26:44;;;;;;;0.85;0.82;;;;;;;;;;5490834;26;20656;-80
2024/04/28 02:29:10;;;;;;;0.70;0.70;;;;;;;;;;5524089;26;20331;-81
2024/04/28 02:31:36;;;;;;;1.00;0.70;;;;;;;;;;5525555;26;20432;-81
2024/04/28 02:34:02;;;;;;;0.60;0.60;;;;;;;;;;5526317;26;20472;-81
2024/04/28 02:36:27;;;;;;;0.60;0.60;;;;;;;;;;5526821;26;20323;-81
2024/04/28 02:38:53;;;;;;;0.80;0.80;;;;;;;;;;5526963;26;20348;-81
2024/04/28 02:41:19;;;;;;;2.80;0.60;;;;;;;;;;5526785;26;20343;-81
2024/04/28 02:43:45;;;;;;;0.77;0.70;;;;;;;;;;5527700;26;20315;-79
2024/04/28 02:48:59;;;;;;;0.60;0.60;;;;;;;;;;5527683;26;20363;-79
2024/04/28 02:51:25;;;;;;;0.95;0.70;;;;;;;;;;5524110;26;20328;-81
2024/04/28 02:53:51;;;;;;;0.80;0.80;;;;;;;;;;5527575;26;20367;-81
2024/04/28 02:56:17;;;;;;;0.75;0.60;;;;;;;;;;5527789;26;20336;-81
2024/04/28 02:58:43;;;;;;;0.90;0.80;;;;;;;;;;5527064;26;20370;-81
2024/04/28 03:01:09;;;;;;;0.80;0.60;;;;;;;;;;5522696;26;20327;-81
2024/04/28 03:03:35;;;;;;;0.80;0.75;;;;;;;;;;5526899;26;20363;-81
2024/04/28 03:06:03;;;;;;;0.83;0.70;;;;;;;;;;5528123;26;20331;-81
2024/04/28 03:08:29;;;;;;;0.90;0.60;;;;;;;;;;5527516;26;20323;-81
2024/04/28 03:10:55;;;;;;;0.60;0.60;;;;;;;;;;5526829;26;20804;-81
2024/04/28 03:13:21;;;;;;;1.10;0.60;;;;;;;;;;5527296;26;20363;-81
2024/04/28 03:15:47;;;;;;;0.60;0.60;;;;;;;;;;5527759;26;20425;-81
2024/04/28 03:18:13;;;;;;;0.68;0.60;;;;;;;;;;5527317;26;20316;-82
2024/04/28 03:20:39;;;;;;;0.80;0.80;;;;;;;;;;5527245;26;20355;-81
2024/04/28 03:23:05;;;;;;;1.40;0.60;;;;;;;;;;5527358;26;20319;-81
2024/04/28 03:25:31;;;;;;;1.00;0.80;;;;;;;;;;5527195;26;20320;-81
2024/04/28 03:27:57;;;;;;;1.10;0.90;;;;;;;;;;5526616;26;20374;-79
2024/04/28 03:30:25;;;;;;;0.85;0.73;;;;;;;;;;5526832;26;20323;-79
2024/04/28 03:32:51;;;;;;;0.80;0.70;;;;;;;;;;5526894;26;20389;-81
2024/04/28 03:35:17;;;;;;;0.85;0.80;;;;;;;;;;5527479;26;20657;-81
2024/04/28 03:37:43;;;;;;;0.70;0.70;;;;;;;;;;5526952;26;20401;-81
2024/04/28 03:40:09;;;;;;;0.80;0.60;;;;;;;;;;5526341;26;20358;-81
2024/04/28 03:42:35;;;;;;;0.90;0.70;;;;;;;;;;5527416;26;20368;-81
2024/04/28 03:45:01;;;;;;;1.17;0.97;;;;;;;;;;5531485;26;20323;-79
2024/04/28 03:47:27;;;;;;;1.10;1.00;;;;;;;;;;5530336;26;20327;-79
2024/04/28 03:49:53;;;;;;;1.65;0.90;;;;;;;;;;5530281;26;20324;-79
2024/04/28 03:52:19;;;;;;;1.20;0.70;;;;;;;;;;5530175;26;20354;-79
2024/04/28 03:54:45;;;;;;;1.90;0.70;;;;;;;;;;5530113;26;20661;-79
2024/04/28 03:57:11;;;;;;;1.00;0.73;;;;;;;;;;5530833;26;20409;-79
2024/04/28 03:59:37;;;;;;;1.00;0.70;;;;;;;;;;5525761;26;20354;-79
2024/04/28 04:02:03;;;;;;;0.80;0.60;;;;;;;;;;5509152;26;20324;-79
2024/04/28 04:04:29;;;;;;;0.50;0.50;;;;;;;;;;5530023;26;20730;-79
2024/04/28 04:06:55;;;;;;;1.15;0.80;;;;;;;;;;5530415;26;20323;-79
2024/04/28 04:09:21;;;;;;;0.80;0.63;;;;;;;;;;5530337;26;20426;-79
2024/04/28 04:11:47;;;;;;;1.30;0.60;;;;;;;;;;5529983;26;20323;-81
2024/04/28 04:14:13;;;;;;;0.50;0.50;;;;;;;;;;5529531;26;20323;-81
2024/04/28 04:16:39;;;;;;;0.73;0.57;;;;;;;;;;5530556;26;20323;-81
2024/04/28 04:19:05;;;;;;;0.70;0.52;;;;;;;;;;5531165;26;20379;-81
2024/04/28 04:21:31;;;;;;;0.52;0.50;;;;;;;;;;5531966;26;20328;-81
2024/04/28 04:23:57;;;;;;;0.90;0.55;;;;;;;;;;5530642;26;20327;-81
2024/04/28 04:26:23;;;;;;;0.55;0.55;;;;;;;;;;5529890;26;20369;-82
2024/04/28 04:28:48;;;;;;;1.80;0.95;;;;;;;;;;5529761;26;20331;-81
2024/04/28 04:31:15;;;;;;;5.43;1.13;;;;;;;;;;5529684;26;20375;-81
2024/04/28 04:33:40;;;;;;;0.82;0.82;;;;;;;;;;5529290;26;20315;-81
2024/04/28 04:36:07;;;;;;;1.02;0.90;;;;;;;;;;5529796;26;20320;-81
2024/04/28 04:38:33;;;;;;;1.70;1.40;;;;;;;;;;5529551;26;20887;-81
2024/04/28 04:40:59;;;;;;;0.90;0.70;;;;;;;;;;5529577;26;20356;-81
2024/04/28 04:43:25;;;;;;;0.60;0.40;;;;;;;;;;5529579;26;20654;-82
2024/04/28 04:45:51;;;;;;;1.20;0.50;;;;;;;;;;5528884;26;20320;-81
2024/04/28 04:48:17;;;;;;;0.68;0.60;;;;;;;;;;5528814;26;20327;-81
2024/04/28 04:50:42;;;;;;;0.50;0.43;;;;;;;;;;5529364;26;20346;-82
2024/04/28 04:53:08;;;;;;;0.98;0.40;;;;;;;;;;5529138;26;20352;-81
2024/04/28 04:55:34;;;;;;;0.50;0.50;;;;;;;;;;5511528;26;20314;-79
2024/04/28 04:58:00;;;;;;;0.60;0.50;;;;;;;;;;5529775;26;20324;-81
2024/04/28 05:00:26;;;;;;;1.60;0.50;;;;;;;;;;5529557;26;20417;-81
2024/04/28 05:02:52;;;;;;;1.25;0.60;;;;;;;;;;5529354;26;20855;-81
2024/04/28 05:05:19;;;;;;;0.60;0.40;;;;;;;;;;5528702;26;20323;-81
2024/04/28 05:07:45;;;;;;;0.85;0.55;;;;;;;;;;5529148;26;20327;-79
2024/04/28 05:10:11;;;;;;;0.55;0.45;;;;;;;;;;5528777;26;20355;-79
2024/04/28 05:12:37;;;;;;;0.50;0.50;;;;;;;;;;5528891;26;20701;-81
2024/04/28 05:15:03;;;;;;;0.50;0.50;;;;;;;;;;5528346;26;20336;-79
2024/04/28 05:17:29;;;;;;;0.50;0.50;;;;;;;;;;5528499;26;20369;-79
2024/04/28 05:19:55;;;;;;;0.87;0.60;;;;;;;;;;5528677;26;20320;-79
2024/04/28 05:22:21;;;;;;;0.90;0.90;;;;;;;;;;5528654;26;20887;-79
2024/04/28 05:24:47;;;;;;;0.68;0.68;;;;;;;;;;5528428;26;20315;-80
2024/04/28 05:27:13;;;;;;;1.00;0.80;;;;;;;;;;5528817;26;20316;-79
2024/04/28 05:29:39;;;;;;;0.93;0.87;;;;;;;;;;5529207;26;20824;-79
2024/04/28 05:32:05;;;;;;;1.13;1.02;;;;;;;;;;5528567;26;20319;-79
2024/04/28 05:34:31;;;;;;;0.75;0.75;;;;;;;;;;5528204;26;20408;-80
2024/04/28 05:36:57;;;;;;;0.85;0.80;;;;;;;;;;5528193;26;20331;-81
2024/04/28 05:39:23;;;;;;;1.00;0.90;;;;;;;;;;5528002;26;20331;-81
2024/04/28 05:41:49;;;;;;;1.58;1.00;;;;;;;;;;5528822;26;20371;-81
2024/04/28 05:44:15;;;;;;;0.80;0.80;;;;;;;;;;5528417;26;20335;-81
2024/04/28 05:46:41;;;;;;;2.20;1.10;;;;;;;;;;5528469;26;20360;-79
2024/04/28 05:49:07;;;;;;;1.30;1.10;;;;;;;;;;5528224;26;20358;-79
2024/04/28 05:51:33;;;;;;;1.03;0.93;;;;;;;;;;5527870;26;20352;-79
2024/04/28 05:53:59;;;;;;;0.85;0.73;;;;;;;;;;5503764;26;20326;-80
2024/04/28 05:56:25;;;;;;;1.15;1.00;;;;;;;;;;5512814;26;20320;-80
2024/04/28 05:58:51;;;;;;;0.80;0.80;;;;;;;;;;5527979;26;20342;-80
2024/04/28 06:01:17;;;;;;;0.82;0.80;;;;;;;;;;5528394;26;20315;-80
2024/04/28 06:03:44;;;;;;;1.42;0.85;;;;;;;;;;5528008;26;20400;-80
2024/04/28 06:06:10;;;;;;;0.95;0.88;;;;;;;;;;5528137;25;21123;-79
2024/04/28 06:08:36;;;;;;;0.90;0.80;;;;;;;;;;5527947;26;20323;-80
2024/04/28 06:11:02;;;;;;;0.60;0.60;;;;;;;;;;5527854;26;20383;-81
2024/04/28 06:13:28;;;;;;;1.77;1.67;;;;;;;;;;5528665;26;20843;-83
2024/04/28 06:15:54;;;;;;;1.60;1.50;;;;;;;;;;5528444;26;20417;-80
2024/04/28 06:18:20;;;;;;;2.05;1.85;;;;;;;;;;5526981;26;20677;-79
2024/04/28 06:20:46;;;;;;;2.80;2.10;;;;;;;;;;5528196;26;20369;-79
2024/04/28 06:23:11;;;;;;;1.90;1.80;;;;;;;;;;5527464;26;20331;-80
2024/04/28 06:25:37;;;;;;;1.92;1.60;;;;;;;;;;5528262;26;20398;-79
2024/04/28 06:28:03;;;;;;;1.50;1.40;;;;;;;;;;5528006;26;20642;-81
2024/04/28 06:30:29;;;;;;;2.00;1.50;;;;;;;;;;5527778;26;20682;-82
2024/04/28 06:32:55;;;;;;;1.23;1.13;;;;;;;;;;5528492;26;20377;-79
2024/04/28 06:35:21;;;;;;;2.23;1.30;;;;;;;;;;5528098;26;20327;-79
2024/04/28 06:37:47;;;;;;;1.70;1.20;;;;;;;;;;5528128;26;20420;-82
2024/04/28 06:40:13;;;;;;;1.38;1.27;;;;;;;;;;5528017;26;20331;-80
2024/04/28 06:42:39;;;;;;;1.20;1.02;;;;;;;;;;5527824;26;20363;-82
2024/04/28 06:45:06;;;;;;;1.90;1.00;;;;;;;;;;5528142;26;20360;-82
2024/04/28 06:47:32;;;;;;;2.22;1.40;;;;;;;;;;5527892;26;20694;-82
2024/04/28 06:49:58;;;;;;;4.70;3.15;;;;;;;;;;5527036;26;20327;-82
2024/04/28 06:52:24;;;;;;;3.00;2.67;;;;;;;;;;5527699;26;20342;-82
2024/04/28 06:54:50;;;;;;;4.38;2.83;;;;;;;;;;5527061;26;20324;-81
2024/04/28 06:57:16;;;;;;;2.53;2.33;;;;;;;;;;5527358;26;20328;-82
2024/04/28 06:59:42;;;;;;;2.80;2.42;;;;;;;;;;5527081;26;20324;-82
2024/04/28 07:02:07;;;;;;;2.33;2.07;;;;;;;;;;5527160;26;20323;-82
2024/04/28 07:04:33;;;;;;;2.20;1.95;;;;;;;;;;5525973;26;20417;-81
2024/04/28 07:06:59;;;;;;;2.00;1.60;;;;;;;;;;5526113;26;20387;-81
2024/04/28 07:09:26;;;;;;;1.70;1.50;;;;;;;;;;5525000;26;20665;-81
2024/04/28 07:11:51;;;;;;;1.60;1.50;;;;;;;;;;5524892;26;20372;-81
2024/04/28 07:14:17;;;;;;;1.90;1.67;;;;;;;;;;5524962;26;20666;-82
2024/04/28 07:16:43;;;;;;;1.70;1.40;;;;;;;;;;5525288;26;20323;-82
2024/04/28 07:19:09;;;;;;;1.52;1.40;;;;;;;;;;5523980;26;20324;-81
2024/04/28 07:21:35;;;;;;;1.60;1.50;;;;;;;;;;5524865;26;20323;-81
2024/04/28 07:24:01;;;;;;;1.70;1.60;;;;;;;;;;5524779;26;20430;-81
2024/04/28 07:26:27;;;;;;;4.18;1.70;;;;;;;;;;5524742;26;20331;-81
2024/04/28 07:28:53;;;;;;;2.25;2.00;;;;;;;;;;5524378;26;20368;-81
2024/04/28 07:31:19;;;;;;;2.08;1.88;;;;;;;;;;5524454;26;20355;-81
2024/04/28 07:33:46;;;;;;;2.38;1.90;;;;;;;;;;5524843;26;20668;-81
2024/04/28 07:36:12;;;;;;;2.75;1.83;;;;;;;;;;5524539;26;20332;-81
2024/04/28 07:38:38;;;;;;;2.28;1.98;;;;;;;;;;5523582;26;20352;-81
2024/04/28 07:41:04;;;;;;;2.85;2.53;;;;;;;;;;5524209;26;20737;-81
2024/04/28 07:43:30;;;;;;;4.15;3.53;;;;;;;;;;5524049;26;20679;-81
2024/04/28 07:45:56;;;;;;;5.32;3.47;;;;;;;;;;5523925;26;20315;-82
2024/04/28 07:48:22;;;;;;;4.47;3.13;;;;;;;;;;5523866;26;20360;-81
2024/04/28 07:50:48;;;;;;;3.57;2.87;;;;;;;;;;5518218;26;20328;-81
2024/04/28 07:53:14;;;;;;;3.03;2.30;;;;;;;;;;5523754;26;20323;-81
2024/04/28 07:55:40;;;;;;;2.72;2.40;;;;;;;;;;5508088;26;20318;-81
2024/04/28 07:58:11;;;;;;;3.28;2.38;;;;;;;;;;5523978;26;20362;-82
2024/04/28 08:00:37;;;;;;;1.73;1.50;;;;;;;;;;5524425;26;20391;-81
2024/04/28 08:03:03;;;;;;;1.23;0.95;;;;;;;;;;5523929;26;20824;-82
2024/04/28 08:05:29;;;;;;;1.30;0.70;;;;;;;;;;5524675;26;20863;-81
2024/04/28 08:07:55;;;;;;;1.90;0.77;;;;;;;;;;5523769;26;20495;-81
2024/04/28 08:10:21;;;;;;;0.80;0.80;;;;;;;;;;5497634;26;20323;-81
2024/04/28 08:12:47;;;;;;;1.23;0.73;;;;;;;;;;5523818;26;20371;-81
2024/04/28 08:15:13;;;;;;;2.13;0.85;;;;;;;;;;5524824;26;20319;-81
2024/04/28 08:17:39;;;;;;;0.77;0.60;;;;;;;;;;5523510;26;20439;-81
2024/04/28 08:20:05;;;;;;;0.67;0.50;;;;;;;;;;5523630;26;20324;-81
2024/04/28 08:22:31;;;;;;;0.82;0.43;;;;;;;;;;5523759;26;20315;-80
2024/04/28 08:24:57;;;;;;;1.17;0.60;;;;;;;;;;5523313;26;20328;-81
2024/04/28 08:27:23;;;;;;;0.60;0.57;;;;;;;;;;5523734;26;20654;-81
2024/04/28 08:29:49;;;;;;;0.60;0.60;;;;;;;;;;5521531;26;20328;-81
2024/04/28 08:32:15;;;;;;;1.00;0.60;;;;;;;;;;5527174;26;20943;-81
2024/04/28 08:34:41;;;;;;;0.50;0.40;;;;;;;;;;5527378;26;20363;-81
2024/04/28 08:37:07;;;;;;;0.47;0.40;;;;;;;;;;5527313;26;20340;-78
2024/04/28 08:39:33;;;;;;;0.63;0.50;;;;;;;;;;5527225;26;20824;-79
2024/04/28 08:41:59;;;;;;;0.70;0.57;;;;;;;;;;5527087;26;20375;-81
2024/04/28 08:44:25;;;;;;;0.70;0.60;;;;;;;;;;5527360;26;20320;-79
2024/04/28 08:46:53;;;;;;;0.70;0.60;;;;;;;;;;5527781;26;20375;-81
2024/04/28 08:49:19;;;;;;;0.70;0.55;;;;;;;;;;5527902;26;20335;-81
2024/04/28 08:51:49;;;;;;;1.35;0.63;;;;;;;;;;5527571;26;20364;-81
2024/04/28 08:54:16;;;;;;;0.75;0.50;;;;;;;;;;5527122;26;20803;-81
2024/04/28 08:56:42;;;;;;;0.47;0.47;;;;;;;;;;5511420;26;20358;-81
2024/04/28 08:59:08;;;;;;;1.20;0.52;;;;;;;;;;5523985;26;20849;-81
2024/04/28 09:01:34;;;;;;;0.73;0.50;;;;;;;;;;5527048;26;20421;-82
2024/04/28 09:04:00;;;;;;;1.55;0.60;;;;;;;;;;5527002;26;20682;-81
2024/04/28 09:06:27;;;;;;;1.65;0.60;;;;;;;;;;5527056;26;20401;-81
2024/04/28 09:08:59;;;;;;;2.40;0.40;;;;;;;;;;5527191;26;20339;-82
2024/04/28 09:11:29;;;;;;;0.60;0.50;;;;;;;;;;5527293;26;20817;-81
2024/04/28 09:13:55;;;;;;;0.55;0.50;;;;;;;;;;5527076;26;20353;-82
2024/04/28 09:16:21;;;;;;;2.30;0.70;;;;;;;;;;5527505;26;20364;-82
2024/04/28 09:18:47;;;;;;;0.90;0.60;;;;;;;;;;5526923;26;20331;-82
2024/04/28 09:21:13;;;;;;;1.55;0.50;;;;;;;;;;5526716;26;20352;-82
2024/04/28 09:23:39;;;;;;;1.15;0.50;;;;;;;;;;5526190;26;20354;-82
2024/04/28 09:26:08;;;;;;;0.70;0.50;;;;;;;;;;5527144;26;20327;-82
2024/04/28 09:28:35;;;;;;;0.50;0.50;;;;;;;;;;5526960;26;20356;-82
2024/04/28 09:31:01;;;;;;;0.70;0.40;;;;;;;;;;5524455;26;20361;-82
2024/04/28 09:33:28;;;;;;;0.90;0.60;;;;;;;;;;5528387;26;20441;-79
2024/04/28 09:35:57;;;;;;;0.80;0.50;;;;;;;;;;5527924;26;20383;-80
2024/04/28 09:38:24;;;;;;;1.10;0.50;;;;;;;;;;5528013;26;20508;-79
2024/04/28 09:40:51;;;;;;;0.53;0.50;;;;;;;;;;5526849;26;20335;-82
2024/04/28 09:43:17;;;;;;;0.88;0.40;;;;;;;;;;5527118;26;20385;-82
2024/04/28 09:45:49;;;;;;;0.98;0.50;;;;;;;;;;5526676;26;20384;-82
2024/04/28 09:48:15;;;;;;;1.23;0.43;;;;;;;;;;5526973;26;20331;-82
2024/04/28 09:50:42;;;;;;;1.35;0.60;;;;;;;;;;5525220;26;20346;-82
2024/04/28 09:53:08;;;;;;;0.70;0.47;;;;;;;;;;5506714;26;20323;-82
2024/04/28 09:55:37;;;;;;;0.40;0.32;;;;;;;;;;5510930;26;20315;-81
2024/04/28 09:58:03;;;;;;;1.73;0.50;;;;;;;;;;5526455;26;20320;-82
2024/04/28 10:00:30;;;;;;;2.83;0.50;;;;;;;;;;5526428;26;20764;-79
2024/04/28 10:03:00;;;;;;;0.88;0.52;;;;;;;;;;5526653;26;20316;-79
2024/04/28 10:05:26;;;;;;;0.88;0.40;;;;;;;;;;5526454;26;20327;-79
2024/04/28 10:07:57;;;;;;;1.38;0.47;;;;;;;;;;5526410;26;20411;-79
2024/04/28 10:10:23;;;;;;;1.73;0.40;;;;;;;;;;5500372;26;20379;-79
2024/04/28 10:12:50;;;;;;;5.18;0.50;;;;;;;;;;5526476;26;20364;-81
2024/04/28 10:15:16;;;;;;;0.47;0.40;;;;;;;;;;5526244;26;20458;-81
2024/04/28 10:17:42;;;;;;;1.80;0.43;;;;;;;;;;5526387;26;20458;-83
2024/04/28 10:20:08;;;;;;;0.52;0.50;;;;;;;;;;5526279;26;20832;-83
2024/04/28 10:22:39;;;;;;;0.88;0.50;;;;;;;;;;5525990;26;20365;-83
2024/04/28 10:25:12;;;;;;;2.65;0.50;;;;;;;;;;5526406;26;20876;-83
2024/04/28 10:27:38;;;;;;;0.70;0.40;;;;;;;;;;5526026;26;20413;-81
2024/04/28 10:30:05;;;;;;;0.90;0.50;;;;;;;;;;5525591;26;20662;-82
2024/04/28 10:32:31;;;;;;;0.75;0.40;;;;;;;;;;5523428;26;20328;-82
2024/04/28 10:34:58;;;;;;;1.90;0.32;;;;;;;;;;5526009;26;20437;-82
2024/04/28 10:37:24;;;;;;;0.68;0.50;;;;;;;;;;5516543;26;20319;-82
2024/04/28 10:39:53;;;;;;;1.65;0.40;;;;;;;;;;5525745;26;20934;-83
2024/04/28 10:42:19;;;;;;;1.13;0.40;;;;;;;;;;5526314;26;20402;-82
2024/04/28 10:44:45;;;;;;;1.40;0.50;;;;;;;;;;5525944;26;20323;-82
2024/04/28 10:47:13;;;;;;;0.80;0.50;;;;;;;;;;5525483;26;20421;-82
2024/04/28 10:49:40;;;;;;;0.97;0.50;;;;;;;;;;5525635;26;20367;-82
2024/04/28 10:52:06;;;;;;;1.25;0.43;;;;;;;;;;5522106;26;20375;-82
2024/04/28 10:54:32;;;;;;;1.20;0.43;;;;;;;;;;5528074;26;20327;-80
2024/04/28 10:56:58;;;;;;;0.40;0.30;;;;;;;;;;5527762;26;20391;-80
2024/04/28 10:59:24;;;;;;;0.60;0.50;;;;;;;;;;5494074;26;20331;-79
2024/04/28 11:01:50;;;;;;;1.50;0.50;;;;;;;;;;5526632;26;20367;-79
2024/04/28 11:04:17;;;;;;;1.10;0.30;;;;;;;;;;5526766;26;20362;-79
2024/04/28 11:06:43;;;;;;;0.70;0.43;;;;;;;;;;5526324;26;20383;-79
2024/04/28 11:09:09;;;;;;;1.10;0.40;;;;;;;;;;5526472;26;20426;-79
2024/04/28 11:11:35;;;;;;;1.27;0.20;;;;;;;;;;5526745;26;20319;-82
2024/04/28 11:14:02;;;;;;;0.83;0.30;;;;;;;;;;5527053;26;20812;-82
2024/04/28 11:16:28;;;;;;;0.70;0.40;;;;;;;;;;5494698;26;20360;-82
2024/04/28 11:18:54;;;;;;;1.20;0.30;;;;;;;;;;5526104;26;20324;-82
2024/04/28 11:21:21;;;;;;;0.70;0.30;;;;;;;;;;5527024;26;20378;-82
2024/04/28 11:23:50;;;;;;;0.47;0.22;;;;;;;;;;5526320;26;20362;-82
2024/04/28 11:26:16;;;;;;;0.30;0.20;;;;;;;;;;5525216;26;20331;-82
2024/04/28 11:28:42;;;;;;;0.28;0.28;;;;;;;;;;5526141;26;20319;-82
2024/04/28 11:31:09;;;;;;;0.63;0.30;;;;;;;;;;5526459;26;20801;-82
2024/04/28 11:33:35;;;;;;;0.60;0.30;;;;;;;;;;5523405;26;20379;-82
2024/04/28 11:36:03;;;;;;;0.57;0.30;;;;;;;;;;5526921;26;20852;-82
2024/04/28 11:38:29;;;;;;;0.50;0.40;;;;;;;;;;5525704;26;20458;-82
2024/04/28 11:40:55;;;;;;;0.80;0.40;;;;;;;;;;5526219;26;20368;-82
2024/04/28 11:43:26;;;;;;;0.85;0.35;;;;;;;;;;5525826;26;20320;-82
2024/04/28 11:45:52;;;;;;;0.28;0.28;;;;;;;;;;5523213;26;20725;-82
2024/04/28 11:48:18;;;;;;;1.35;0.30;;;;;;;;;;5521167;26;20350;-80
2024/04/28 11:50:45;;;;;;;0.97;0.20;;;;;;;;;;5525409;26;20331;-80
2024/04/28 11:53:11;;;;;;;1.17;0.20;;;;;;;;;;5525669;26;20359;-80
2024/04/28 11:55:37;;;;;;;0.85;0.20;;;;;;;;;;5510476;26;20359;-80
2024/04/28 11:58:04;;;;;;;0.30;0.15;;;;;;;;;;5525368;26;20396;-80
2024/04/28 12:00:31;;;;;;;0.40;0.20;;;;;;;;;;5525573;26;20328;-80
2024/04/28 12:02:57;;;;;;;0.30;0.20;;;;;;;;;;5525728;26;20792;-80
2024/04/28 12:05:23;;;;;;;1.30;0.20;;;;;;;;;;5496769;26;20327;-80
2024/04/28 12:07:49;;;;;;;0.73;0.32;;;;;;;;;;5528716;26;20440;-79
2024/04/28 12:10:15;;;;;;;0.32;0.20;;;;;;;;;;5531178;26;20331;-79
2024/04/28 12:12:41;;;;;;;0.30;0.25;;;;;;;;;;5497836;26;20330;-79
2024/04/28 12:15:07;;;;;;;0.30;0.20;;;;;;;;;;5495664;26;20662;-80
2024/04/28 12:17:33;;;;;;;1.00;0.27;;;;;;;;;;5527759;26;20320;-80
2024/04/28 12:19:59;;;;;;;1.10;0.20;;;;;;;;;;5527635;26;21110;-80
2024/04/28 12:22:25;;;;;;;0.45;0.32;;;;;;;;;;5527639;26;20343;-80
2024/04/28 12:24:51;;;;;;;0.32;0.30;;;;;;;;;;5527636;26;20320;-80
2024/04/28 12:27:17;;;;;;;1.65;0.20;;;;;;;;;;5527846;26;20816;-80
2024/04/28 12:29:44;;;;;;;1.42;0.20;;;;;;;;;;5527367;26;20398;-80
2024/04/28 12:32:14;;;;;;;0.67;0.30;;;;;;;;;;5527595;26;20316;-80
2024/04/28 12:34:40;;;;;;;1.00;0.30;;;;;;;;;;5525399;26;21236;-79
2024/04/28 12:37:06;;;;;;;0.32;0.20;;;;;;;;;;5527359;26;20428;-80
2024/04/28 12:39:33;;;;;;;0.55;0.30;;;;;;;;;;5527411;26;20364;-80
2024/04/28 12:42:00;;;;;;;0.30;0.20;;;;;;;;;;5526941;26;20324;-81
2024/04/28 12:44:26;;;;;;;0.25;0.20;;;;;;;;;;5527215;26;20339;-80
2024/04/28 12:46:52;;;;;;;0.40;0.20;;;;;;;;;;5527461;26;20421;-80
2024/04/28 12:49:18;;;;;;;0.25;0.20;;;;;;;;;;5526596;26;20320;-80
2024/04/28 12:51:44;;;;;;;0.77;0.20;;;;;;;;;;5527080;26;20348;-82
2024/04/28 12:54:10;;;;;;;0.80;0.30;;;;;;;;;;5494390;26;20352;-82
2024/04/28 12:56:37;;;;;;;0.47;0.10;;;;;;;;;;5510993;26;20323;-82
2024/04/28 12:59:03;;;;;;;0.35;0.25;;;;;;;;;;5526567;26;20320;-82
2024/04/28 13:01:29;;;;;;;1.00;0.30;;;;;;;;;;5526456;26;20308;-82
2024/04/28 13:03:55;;;;;;;0.35;0.25;;;;;;;;;;5493815;26;20324;-82
2024/04/28 13:06:21;;;;;;;0.30;0.20;;;;;;;;;;5526784;26;20362;-81
2024/04/28 13:08:48;;;;;;;1.55;0.20;;;;;;;;;;5526754;26;20401;-79
2024/04/28 13:11:14;;;;;;;0.68;0.40;;;;;;;;;;5527031;26;20338;-79
2024/04/28 13:13:40;;;;;;;0.90;0.30;;;;;;;;;;5526794;26;20316;-79
2024/04/28 13:16:06;;;;;;;2.58;0.20;;;;;;;;;;5525576;26;20421;-79
2024/04/28 13:18:32;;;;;;;1.20;0.30;;;;;;;;;;5527074;26;20351;-79
2024/04/28 13:20:58;;;;;;;1.25;0.30;;;;;;;;;;5527111;26;20349;-81
2024/04/28 13:23:24;;;;;;;1.00;0.20;;;;;;;;;;5526748;26;20428;-81
2024/04/28 13:25:50;;;;;;;0.80;0.30;;;;;;;;;;5526716;26;20332;-81
2024/04/28 13:28:16;;;;;;;2.08;0.68;;;;;;;;;;5527543;26;20320;-83
2024/04/28 13:30:42;;;;;;;0.95;0.40;;;;;;;;;;5527517;26;20385;-83
2024/04/28 13:33:09;;;;;;;0.37;0.10;;;;;;;;;;5527000;26;20327;-82
2024/04/28 13:35:35;;;;;;;0.60;0.30;;;;;;;;;;5493640;26;20402;-79
2024/04/28 13:38:01;;;;;;;1.80;0.30;;;;;;;;;;5526057;26;20431;-79
2024/04/28 13:40:27;;;;;;;0.70;0.20;;;;;;;;;;5526858;26;20316;-79
2024/04/28 13:42:53;;;;;;;0.80;0.30;;;;;;;;;;5527132;26;20316;-79
2024/04/28 13:45:19;;;;;;;0.35;0.20;;;;;;;;;;5528821;26;20369;-80
2024/04/28 13:47:45;;;;;;;0.40;0.20;;;;;;;;;;5522916;26;20320;-80
2024/04/28 13:50:11;;;;;;;0.47;0.10;;;;;;;;;;5527292;26;20312;-80
2024/04/28 13:52:37;;;;;;;1.20;0.20;;;;;;;;;;5527938;26;20729;-81
2024/04/28 13:55:04;;;;;;;1.67;0.30;;;;;;;;;;5519013;26;20863;-80
2024/04/28 13:57:30;;;;;;;0.98;0.17;;;;;;;;;;5519857;26;20394;-80
2024/04/28 13:59:56;;;;;;;2.05;0.20;;;;;;;;;;5527455;26;20723;-80
2024/04/28 14:02:22;;;;;;;0.85;0.20;;;;;;;;;;5526306;26;20354;-80
2024/04/28 14:04:48;;;;;;;0.93;0.30;;;;;;;;;;5526881;26;20352;-80
2024/04/28 14:07:15;;;;;;;0.40;0.20;;;;;;;;;;5528101;26;20315;-79
2024/04/28 14:09:42;;;;;;;0.25;0.20;;;;;;;;;;5527520;26;20907;-80
2024/04/28 14:12:08;;;;;;;0.60;0.17;;;;;;;;;;5528234;26;20315;-80
2024/04/28 14:14:37;;;;;;;0.50;0.30;;;;;;;;;;5527319;26;20331;-80
2024/04/28 14:17:04;;;;;;;0.40;0.40;;;;;;;;;;5527549;26;20706;-80
2024/04/28 14:19:33;;;;;;;0.55;0.30;;;;;;;;;;5527735;26;20356;-79
2024/04/28 14:21:59;;;;;;;0.30;0.20;;;;;;;;;;5526887;26;20385;-80
2024/04/28 14:24:25;;;;;;;0.10;0.03;;;;;;;;;;5528098;26;20383;-80
2024/04/28 14:26:51;;;;;;;1.98;0.40;;;;;;;;;;5525883;26;20354;-79
2024/04/28 14:29:20;;;;;;;0.30;0.20;;;;;;;;;;5526523;26;20413;-80
2024/04/28 14:31:48;;;;;;;0.20;0.20;;;;;;;;;;5493877;26;20411;-79
2024/04/28 14:34:16;;;;;;;1.10;0.65;;;;;;;;;;5526674;26;20320;-80
2024/04/28 14:36:42;;;;;;;1.00;0.40;;;;;;;;;;5524294;26;22002;-80
2024/04/28 14:39:09;;;;;;;0.30;0.20;;;;;;;;;;5526251;26;20327;-80